Time;durP1;ratioP1;P1;durP2;ratioP2;P2;SDS_P1;SDS_P2;PMS_P1;PMS_P2;Temp;Humidity;BMP_temperature;BMP_pressure;BME280_temperature;BME280_humidity;BME280_pressure;Samples;Min_cycle;Max_cycle;Signal;HPM_P1;HPM_P2
2023/07/17 00:02:06;;;;;;;14.67;13.10;;;;;;;;;;735429;187;920393;-59
2023/07/17 00:04:32;;;;;;;14.50;13.10;;;;;;;;;;741303;188;919193;-60
2023/07/17 00:06:57;;;;;;;16.00;14.30;;;;;;;;;;735694;188;1016304;-61
2023/07/17 00:09:23;;;;;;;15.70;14.07;;;;;;;;;;737984;189;815859;-60
2023/07/17 00:11:49;;;;;;;16.30;14.23;;;;;;;;;;737903;189;816373;-60
2023/07/17 00:14:15;;;;;;;19.37;17.40;;;;;;;;;;735240;190;918332;-60
2023/07/17 00:16:41;;;;;;;18.17;16.27;;;;;;;;;;713477;195;891717;-59
2023/07/17 00:19:07;;;;;;;16.83;15.10;;;;;;;;;;736370;188;918962;-60
2023/07/17 00:21:32;;;;;;;17.33;15.50;;;;;;;;;;733556;190;921097;-61
2023/07/17 00:23:58;;;;;;;17.67;15.97;;;;;;;;;;737908;186;919293;-59
2023/07/17 00:26:24;;;;;;;17.60;15.90;;;;;;;;;;737347;189;919787;-60
2023/07/17 00:28:50;;;;;;;18.23;16.40;;;;;;;;;;741936;188;916833;-59
2023/07/17 00:31:16;;;;;;;17.40;15.60;;;;;;;;;;738777;188;919382;-60
2023/07/17 00:33:42;;;;;;;20.07;16.30;;;;;;;;;;732572;190;920476;-59
2023/07/17 00:36:08;;;;;;;18.17;15.70;;;;;;;;;;739395;188;918819;-59
2023/07/17 00:38:34;;;;;;;17.23;15.57;;;;;;;;;;715233;194;913392;-61
2023/07/17 00:41:00;;;;;;;16.97;15.27;;;;;;;;;;732905;188;919488;-60
2023/07/17 00:43:26;;;;;;;17.12;15.32;;;;;;;;;;731625;189;919283;-61
2023/07/17 00:45:52;;;;;;;20.37;15.40;;;;;;;;;;741883;189;919600;-60
2023/07/17 00:48:17;;;;;;;18.67;16.77;;;;;;;;;;735164;187;919264;-61
2023/07/17 00:50:43;;;;;;;16.67;14.80;;;;;;;;;;736353;189;915060;-61
2023/07/17 00:53:09;;;;;;;16.17;14.57;;;;;;;;;;742462;188;919250;-60
2023/07/17 00:55:35;;;;;;;17.43;15.37;;;;;;;;;;737737;189;923055;-60
2023/07/17 00:58:01;;;;;;;17.40;15.37;;;;;;;;;;736069;187;922517;-60
2023/07/17 01:00:27;;;;;;;17.30;15.67;;;;;;;;;;740458;187;915692;-61
2023/07/17 01:02:53;;;;;;;16.67;15.03;;;;;;;;;;735143;189;919699;-60
2023/07/17 01:05:18;;;;;;;16.83;15.13;;;;;;;;;;734063;189;919687;-60
2023/07/17 01:07:44;;;;;;;14.73;13.40;;;;;;;;;;737016;189;915487;-60
2023/07/17 01:10:10;;;;;;;15.80;13.67;;;;;;;;;;741061;189;876312;-59
2023/07/17 01:12:36;;;;;;;15.40;13.83;;;;;;;;;;735944;188;869880;-60
2023/07/17 01:15:02;;;;;;;16.00;14.40;;;;;;;;;;729481;188;919182;-61
2023/07/17 01:17:28;;;;;;;15.00;13.60;;;;;;;;;;734802;188;919153;-61
2023/07/17 01:19:53;;;;;;;17.80;15.93;;;;;;;;;;738473;187;919165;-61
2023/07/17 01:22:20;;;;;;;15.20;13.67;;;;;;;;;;737137;187;918086;-62
2023/07/17 01:24:46;;;;;;;16.50;14.80;;;;;;;;;;742089;188;919401;-61
2023/07/17 01:27:12;;;;;;;15.73;13.97;;;;;;;;;;731557;189;919074;-64
2023/07/17 01:29:38;;;;;;;17.15;15.43;;;;;;;;;;736980;189;717726;-60
2023/07/17 01:32:03;;;;;;;14.93;13.47;;;;;;;;;;714071;195;918670;-60
2023/07/17 01:34:29;;;;;;;16.90;15.20;;;;;;;;;;715904;196;914338;-60
2023/07/17 01:36:55;;;;;;;16.80;14.07;;;;;;;;;;732215;188;819071;-60
2023/07/17 01:39:21;;;;;;;15.40;13.90;;;;;;;;;;732485;188;816787;-61
2023/07/17 01:41:47;;;;;;;14.93;13.53;;;;;;;;;;744358;187;919644;-61
2023/07/17 01:44:13;;;;;;;18.13;13.00;;;;;;;;;;738986;188;919961;-61
2023/07/17 01:46:39;;;;;;;14.53;13.03;;;;;;;;;;711920;194;816951;-61
2023/07/17 01:49:04;;;;;;;15.33;13.83;;;;;;;;;;739183;189;918221;-60
2023/07/17 01:51:30;;;;;;;15.53;12.93;;;;;;;;;;727468;189;917753;-61
2023/07/17 01:53:56;;;;;;;14.60;11.70;;;;;;;;;;733399;189;817188;-61
2023/07/17 01:56:22;;;;;;;17.60;13.93;;;;;;;;;;725297;192;918610;-61
2023/07/17 01:58:48;;;;;;;12.93;11.70;;;;;;;;;;736054;188;919348;-60
2023/07/17 02:01:15;;;;;;;12.60;11.40;;;;;;;;;;741123;187;919094;-60
2023/07/17 02:03:40;;;;;;;14.23;12.83;;;;;;;;;;736316;188;919256;-60
2023/07/17 02:06:06;;;;;;;13.07;11.77;;;;;;;;;;738477;189;921014;-61
2023/07/17 02:08:31;;;;;;;14.90;12.30;;;;;;;;;;725631;188;930169;-60
2023/07/17 02:10:57;;;;;;;13.67;12.27;;;;;;;;;;730138;189;820973;-61
2023/07/17 02:13:23;;;;;;;13.80;12.30;;;;;;;;;;738724;189;919933;-61
2023/07/17 02:15:49;;;;;;;14.30;12.57;;;;;;;;;;735721;189;923370;-60
2023/07/17 02:18:15;;;;;;;14.20;12.80;;;;;;;;;;712560;195;920589;-60
2023/07/17 02:20:41;;;;;;;16.07;14.40;;;;;;;;;;714465;195;918031;-60
2023/07/17 02:23:07;;;;;;;15.77;14.27;;;;;;;;;;732582;189;920518;-60
2023/07/17 02:25:32;;;;;;;14.53;13.00;;;;;;;;;;735957;189;1021028;-59
2023/07/17 02:27:58;;;;;;;13.97;12.37;;;;;;;;;;733514;189;922190;-61
2023/07/17 02:30:24;;;;;;;13.53;11.90;;;;;;;;;;740513;189;919511;-59
2023/07/17 02:32:50;;;;;;;14.43;12.87;;;;;;;;;;727906;189;918725;-60
2023/07/17 02:35:16;;;;;;;12.20;11.10;;;;;;;;;;732819;189;917523;-60
2023/07/17 02:37:42;;;;;;;14.20;11.50;;;;;;;;;;740797;189;918859;-61
2023/07/17 02:40:10;;;;;;;16.07;10.90;;;;;;;;;;734800;189;914718;-60
2023/07/17 02:42:34;;;;;;;13.70;12.10;;;;;;;;;;735064;189;921493;-59
2023/07/17 02:45:01;;;;;;;13.40;12.00;;;;;;;;;;738401;188;915473;-60
2023/07/17 02:47:26;;;;;;;16.00;12.63;;;;;;;;;;736480;188;919675;-60
2023/07/17 02:49:52;;;;;;;16.85;12.70;;;;;;;;;;721122;192;917118;-60
2023/07/17 02:52:18;;;;;;;15.00;12.67;;;;;;;;;;737821;188;916477;-60
2023/07/17 02:54:44;;;;;;;13.50;12.10;;;;;;;;;;746952;187;919309;-60
2023/07/17 02:57:10;;;;;;;21.27;15.07;;;;;;;;;;741620;187;817204;-62
2023/07/17 02:59:36;;;;;;;16.40;12.97;;;;;;;;;;734136;187;921963;-59
2023/07/17 03:02:01;;;;;;;14.83;13.30;;;;;;;;;;742488;187;915927;-60
2023/07/17 03:04:27;;;;;;;14.63;12.67;;;;;;;;;;732482;188;923074;-61
2023/07/17 03:06:53;;;;;;;14.95;12.90;;;;;;;;;;736386;187;919407;-62
2023/07/17 03:09:19;;;;;;;15.50;12.50;;;;;;;;;;744148;188;919254;-61
2023/07/17 03:11:45;;;;;;;15.37;13.67;;;;;;;;;;735308;188;890405;-62
2023/07/17 03:14:10;;;;;;;20.10;16.57;;;;;;;;;;740806;187;919777;-62
2023/07/17 03:16:37;;;;;;;18.00;16.10;;;;;;;;;;735369;188;922754;-62
2023/07/17 03:19:03;;;;;;;21.10;18.00;;;;;;;;;;748154;184;919022;-60
2023/07/17 03:21:28;;;;;;;21.70;18.20;;;;;;;;;;739252;187;919211;-62
2023/07/17 03:23:54;;;;;;;21.50;19.17;;;;;;;;;;734956;189;920545;-60
2023/07/17 03:26:20;;;;;;;20.60;18.40;;;;;;;;;;744056;189;782314;-60
2023/07/17 03:28:46;;;;;;;21.63;18.20;;;;;;;;;;732714;187;939350;-63
2023/07/17 03:31:12;;;;;;;20.97;18.87;;;;;;;;;;739009;187;919353;-62
2023/07/17 03:33:38;;;;;;;21.97;19.67;;;;;;;;;;738139;189;919007;-61
2023/07/17 03:36:04;;;;;;;21.57;19.37;;;;;;;;;;736039;189;919925;-62
2023/07/17 03:38:29;;;;;;;17.50;15.40;;;;;;;;;;712106;195;919216;-62
2023/07/17 03:40:56;;;;;;;19.87;17.77;;;;;;;;;;738861;187;915684;-62
2023/07/17 03:43:21;;;;;;;26.37;17.80;;;;;;;;;;738444;186;895813;-62
2023/07/17 03:45:47;;;;;;;19.07;15.77;;;;;;;;;;741404;187;918780;-61
2023/07/17 03:48:13;;;;;;;21.77;17.90;;;;;;;;;;732167;189;920334;-62
2023/07/17 03:50:39;;;;;;;18.90;17.00;;;;;;;;;;739270;189;919154;-61
2023/07/17 03:53:04;;;;;;;17.40;15.00;;;;;;;;;;728634;189;945300;-61
2023/07/17 03:55:30;;;;;;;21.20;16.30;;;;;;;;;;736129;189;918798;-62
2023/07/17 03:57:56;;;;;;;20.23;16.80;;;;;;;;;;738547;189;920066;-62
2023/07/17 04:00:22;;;;;;;23.40;17.93;;;;;;;;;;714158;194;916704;-62
2023/07/17 04:02:48;;;;;;;26.60;19.20;;;;;;;;;;737754;186;845238;-61
2023/07/17 04:05:14;;;;;;;23.27;18.37;;;;;;;;;;744463;187;922076;-60
2023/07/17 04:07:40;;;;;;;20.63;18.40;;;;;;;;;;736277;188;820443;-61
2023/07/17 04:10:06;;;;;;;21.67;17.97;;;;;;;;;;736250;188;921592;-60
2023/07/17 04:12:31;;;;;;;19.90;17.90;;;;;;;;;;736237;188;918744;-62
2023/07/17 04:14:57;;;;;;;21.67;17.03;;;;;;;;;;727231;192;1021650;-60
2023/07/17 04:17:23;;;;;;;17.83;15.20;;;;;;;;;;747000;187;717811;-60
2023/07/17 04:19:49;;;;;;;16.80;14.83;;;;;;;;;;741577;187;624144;-60
2023/07/17 04:22:15;;;;;;;22.80;13.30;;;;;;;;;;741780;189;626652;-61
2023/07/17 04:24:41;;;;;;;15.67;14.17;;;;;;;;;;740194;187;625582;-63
2023/07/17 04:27:06;;;;;;;16.63;14.47;;;;;;;;;;750438;187;633199;-63
2023/07/17 04:29:32;;;;;;;14.30;12.80;;;;;;;;;;741592;187;918037;-63
2023/07/17 04:31:58;;;;;;;18.93;15.17;;;;;;;;;;740687;189;623607;-63
2023/07/17 04:34:24;;;;;;;17.65;15.50;;;;;;;;;;739097;188;918819;-62
2023/07/17 04:36:50;;;;;;;22.70;14.70;;;;;;;;;;740909;188;916837;-63
2023/07/17 04:39:16;;;;;;;18.40;15.73;;;;;;;;;;737095;188;919311;-63
2023/07/17 04:41:42;;;;;;;14.40;12.90;;;;;;;;;;743794;187;857894;-62
2023/07/17 04:44:07;;;;;;;17.37;13.07;;;;;;;;;;742647;187;819268;-63
2023/07/17 04:46:33;;;;;;;14.52;12.15;;;;;;;;;;740856;187;921752;-64
2023/07/17 04:48:59;;;;;;;15.50;13.67;;;;;;;;;;738637;187;913838;-63
2023/07/17 04:51:25;;;;;;;17.37;13.20;;;;;;;;;;735595;187;914422;-65
2023/07/17 04:53:51;;;;;;;14.03;12.60;;;;;;;;;;737288;188;816483;-63
2023/07/17 04:56:17;;;;;;;14.20;11.43;;;;;;;;;;737655;187;914646;-63
2023/07/17 04:58:42;;;;;;;11.82;9.55;;;;;;;;;;735052;189;915698;-63
2023/07/17 05:01:08;;;;;;;11.80;9.40;;;;;;;;;;720427;194;894160;-63
2023/07/17 05:03:36;;;;;;;11.43;9.73;;;;;;;;;;734625;189;911982;-63
2023/07/17 05:06:00;;;;;;;11.17;8.37;;;;;;;;;;739509;189;918659;-63
2023/07/17 05:08:26;;;;;;;10.40;7.07;;;;;;;;;;715630;194;918659;-63
2023/07/17 05:10:53;;;;;;;9.17;6.20;;;;;;;;;;725257;192;918305;-62
2023/07/17 05:13:18;;;;;;;10.70;6.53;;;;;;;;;;745479;186;919397;-61
2023/07/17 05:15:44;;;;;;;13.30;7.40;;;;;;;;;;737158;188;919394;-65
2023/07/17 05:18:10;;;;;;;11.20;7.57;;;;;;;;;;744633;187;920886;-63
2023/07/17 05:20:36;;;;;;;9.90;7.37;;;;;;;;;;743164;185;919053;-62
2023/07/17 05:23:02;;;;;;;10.07;7.60;;;;;;;;;;736188;187;918799;-64
2023/07/17 05:25:28;;;;;;;10.97;7.70;;;;;;;;;;741037;188;875414;-62
2023/07/17 05:27:53;;;;;;;7.70;6.90;;;;;;;;;;737682;188;817219;-63
2023/07/17 05:30:19;;;;;;;9.50;6.90;;;;;;;;;;732433;187;919347;-65
2023/07/17 05:32:45;;;;;;;9.50;7.30;;;;;;;;;;738602;187;917654;-64
2023/07/17 05:35:11;;;;;;;7.30;6.00;;;;;;;;;;741327;187;919264;-64
2023/07/17 05:37:37;;;;;;;9.10;5.80;;;;;;;;;;741429;187;920470;-62
2023/07/17 05:40:04;;;;;;;10.17;5.80;;;;;;;;;;738162;187;913307;-61
2023/07/17 05:42:29;;;;;;;9.53;6.30;;;;;;;;;;738074;189;923756;-63
2023/07/17 05:44:55;;;;;;;10.50;5.70;;;;;;;;;;730512;187;918918;-64
2023/07/17 05:47:20;;;;;;;9.13;5.80;;;;;;;;;;734568;188;919675;-64
2023/07/17 05:49:46;;;;;;;7.77;5.23;;;;;;;;;;738989;187;917541;-64
2023/07/17 05:52:12;;;;;;;6.20;4.70;;;;;;;;;;732014;189;920102;-64
2023/07/17 05:54:38;;;;;;;6.03;5.40;;;;;;;;;;736463;188;918216;-63
2023/07/17 05:57:04;;;;;;;7.27;4.67;;;;;;;;;;737420;189;920006;-64
2023/07/17 05:59:30;;;;;;;9.50;5.00;;;;;;;;;;715928;194;920822;-64
2023/07/17 06:01:56;;;;;;;8.73;5.00;;;;;;;;;;734955;188;817570;-64
2023/07/17 06:04:21;;;;;;;7.73;5.30;;;;;;;;;;736419;187;838959;-63
2023/07/17 06:06:47;;;;;;;8.17;5.00;;;;;;;;;;739712;187;920014;-63
2023/07/17 06:09:13;;;;;;;6.53;4.97;;;;;;;;;;739787;187;914485;-64
2023/07/17 06:11:39;;;;;;;11.00;4.87;;;;;;;;;;736771;187;918065;-62
2023/07/17 06:14:05;;;;;;;7.00;5.30;;;;;;;;;;742109;187;888890;-64
2023/07/17 06:16:31;;;;;;;5.60;4.37;;;;;;;;;;735981;189;921732;-63
2023/07/17 06:18:57;;;;;;;8.23;4.87;;;;;;;;;;736250;189;917598;-62
2023/07/17 06:21:22;;;;;;;5.63;4.83;;;;;;;;;;738096;189;916645;-63
2023/07/17 06:23:48;;;;;;;8.38;4.55;;;;;;;;;;736010;186;918858;-62
2023/07/17 06:26:14;;;;;;;6.30;4.00;;;;;;;;;;714173;195;916527;-63
2023/07/17 06:28:41;;;;;;;6.13;4.93;;;;;;;;;;730176;188;919177;-64
2023/07/17 06:31:06;;;;;;;4.60;4.07;;;;;;;;;;729986;191;918673;-65
2023/07/17 06:33:34;;;;;;;5.30;4.10;;;;;;;;;;734252;189;920653;-61
2023/07/17 06:35:57;;;;;;;7.77;3.97;;;;;;;;;;717765;193;921866;-63
2023/07/17 06:38:23;;;;;;;10.37;4.07;;;;;;;;;;737153;187;919937;-64
2023/07/17 06:40:52;;;;;;;11.27;4.20;;;;;;;;;;737582;187;917794;-65
2023/07/17 06:43:18;;;;;;;7.67;4.43;;;;;;;;;;737070;188;919075;-63
2023/07/17 06:45:44;;;;;;;8.93;4.60;;;;;;;;;;741019;188;818057;-62
2023/07/17 06:48:09;;;;;;;5.93;5.30;;;;;;;;;;714136;194;919878;-64
2023/07/17 06:50:35;;;;;;;10.00;4.63;;;;;;;;;;731794;188;892641;-62
2023/07/17 06:53:01;;;;;;;7.00;4.20;;;;;;;;;;735860;188;871524;-63
2023/07/17 06:55:27;;;;;;;7.37;4.20;;;;;;;;;;733405;188;869119;-62
2023/07/17 06:57:53;;;;;;;5.57;4.63;;;;;;;;;;742460;187;919325;-64
2023/07/17 07:00:19;;;;;;;6.18;5.28;;;;;;;;;;730699;190;1121948;-63
2023/07/17 07:02:45;;;;;;;5.50;4.83;;;;;;;;;;715985;195;916561;-63
2023/07/17 07:05:10;;;;;;;7.50;4.00;;;;;;;;;;727775;188;914627;-64
2023/07/17 07:07:36;;;;;;;5.40;4.03;;;;;;;;;;730512;191;928445;-62
2023/07/17 07:10:02;;;;;;;7.83;4.70;;;;;;;;;;716391;194;821080;-64
2023/07/17 07:12:28;;;;;;;5.80;4.03;;;;;;;;;;731641;188;922878;-63
2023/07/17 07:14:54;;;;;;;5.40;4.33;;;;;;;;;;736503;188;922160;-62
2023/07/17 07:17:20;;;;;;;6.25;4.15;;;;;;;;;;745653;187;855830;-64
2023/07/17 07:19:46;;;;;;;7.30;4.97;;;;;;;;;;738208;188;919066;-64
2023/07/17 07:22:12;;;;;;;8.10;4.40;;;;;;;;;;737372;187;815728;-64
2023/07/17 07:24:41;;;;;;;5.80;4.33;;;;;;;;;;735293;187;919266;-63
2023/07/17 07:27:04;;;;;;;5.83;4.80;;;;;;;;;;739721;189;908171;-63
2023/07/17 07:29:30;;;;;;;6.50;4.97;;;;;;;;;;736470;188;919624;-66
2023/07/17 07:31:56;;;;;;;8.67;5.50;;;;;;;;;;737362;187;1021286;-63
2023/07/17 07:34:21;;;;;;;5.00;4.33;;;;;;;;;;741283;187;919084;-64
2023/07/17 07:36:47;;;;;;;5.43;4.37;;;;;;;;;;739330;188;918422;-64
2023/07/17 07:39:13;;;;;;;8.70;4.77;;;;;;;;;;735507;187;917443;-66
2023/07/17 07:41:39;;;;;;;6.23;4.50;;;;;;;;;;745746;187;907572;-65
2023/07/17 07:44:05;;;;;;;7.23;4.43;;;;;;;;;;738450;187;900111;-63
2023/07/17 07:46:31;;;;;;;7.03;5.20;;;;;;;;;;740901;187;916002;-63
2023/07/17 07:48:56;;;;;;;6.27;4.50;;;;;;;;;;741975;187;625007;-63
2023/07/17 07:51:22;;;;;;;8.30;5.10;;;;;;;;;;744550;188;624286;-64
2023/07/17 07:53:48;;;;;;;10.60;4.87;;;;;;;;;;712570;195;627060;-64
2023/07/17 07:56:14;;;;;;;10.00;5.00;;;;;;;;;;741542;188;913909;-64
2023/07/17 07:58:40;;;;;;;11.63;4.93;;;;;;;;;;746741;187;818463;-63
2023/07/17 08:01:06;;;;;;;7.23;5.33;;;;;;;;;;734017;189;920087;-64
2023/07/17 08:03:32;;;;;;;8.53;5.67;;;;;;;;;;731111;189;929664;-64
2023/07/17 08:05:57;;;;;;;13.30;6.20;;;;;;;;;;716742;195;919343;-63
2023/07/17 08:08:23;;;;;;;10.50;5.00;;;;;;;;;;711309;195;816535;-63
2023/07/17 08:10:51;;;;;;;9.48;5.85;;;;;;;;;;709259;195;941058;-63
2023/07/17 08:13:17;;;;;;;10.67;5.73;;;;;;;;;;734896;189;919697;-64
2023/07/17 08:15:43;;;;;;;9.20;5.43;;;;;;;;;;730069;191;917375;-64
2023/07/17 08:18:08;;;;;;;10.83;5.37;;;;;;;;;;713456;194;936160;-64
2023/07/17 08:20:34;;;;;;;10.52;6.22;;;;;;;;;;725746;192;918895;-64
2023/07/17 08:23:00;;;;;;;6.60;5.23;;;;;;;;;;731454;192;821868;-64
2023/07/17 08:25:26;;;;;;;8.83;4.90;;;;;;;;;;714730;195;918487;-64
2023/07/17 08:27:52;;;;;;;7.72;6.15;;;;;;;;;;727216;190;927831;-63
2023/07/17 08:30:18;;;;;;;7.40;5.93;;;;;;;;;;740622;188;917168;-64
2023/07/17 08:32:43;;;;;;;10.73;6.50;;;;;;;;;;732698;187;916256;-64
2023/07/17 08:35:10;;;;;;;7.67;5.10;;;;;;;;;;733133;189;922429;-63
2023/07/17 08:37:35;;;;;;;7.60;5.63;;;;;;;;;;728672;191;821952;-64
2023/07/17 08:40:01;;;;;;;8.30;5.87;;;;;;;;;;744394;185;919019;-62
2023/07/17 08:42:27;;;;;;;7.50;5.30;;;;;;;;;;713692;195;816842;-63
2023/07/17 08:44:53;;;;;;;8.13;5.87;;;;;;;;;;732751;189;687781;-63
2023/07/17 08:47:19;;;;;;;8.50;5.50;;;;;;;;;;743723;186;817479;-63
2023/07/17 08:49:44;;;;;;;10.10;6.10;;;;;;;;;;737266;187;919212;-64
2023/07/17 08:52:11;;;;;;;6.37;5.57;;;;;;;;;;739677;187;920155;-64
2023/07/17 08:54:37;;;;;;;9.57;5.70;;;;;;;;;;742445;188;814270;-64
2023/07/17 08:57:03;;;;;;;8.93;7.13;;;;;;;;;;736287;189;909440;-63
2023/07/17 08:59:28;;;;;;;6.97;5.77;;;;;;;;;;742980;187;886563;-63
2023/07/17 09:01:54;;;;;;;8.90;5.37;;;;;;;;;;741991;189;917586;-63
2023/07/17 09:04:20;;;;;;;12.63;6.03;;;;;;;;;;733980;188;920307;-64
2023/07/17 09:06:46;;;;;;;9.50;5.93;;;;;;;;;;716377;194;817150;-63
2023/07/17 09:09:12;;;;;;;11.10;5.57;;;;;;;;;;732461;188;918903;-64
2023/07/17 09:11:38;;;;;;;9.10;6.17;;;;;;;;;;739728;187;916953;-64
2023/07/17 09:14:04;;;;;;;17.57;6.63;;;;;;;;;;744118;180;809528;-70
2023/07/17 09:16:29;;;;;;;16.20;5.80;;;;;;;;;;751705;186;918437;-72
2023/07/17 09:18:55;;;;;;;9.23;5.90;;;;;;;;;;748167;187;918779;-72
2023/07/17 09:21:21;;;;;;;15.17;6.27;;;;;;;;;;747166;186;1394276;-71
2023/07/17 09:23:47;;;;;;;14.60;6.90;;;;;;;;;;758195;186;643049;-71
2023/07/17 09:26:14;;;;;;;8.07;6.30;;;;;;;;;;762350;186;617289;-71
2023/07/17 09:28:44;;;;;;;13.90;8.30;;;;;;;;;;757670;186;633180;-71
2023/07/17 09:31:10;;;;;;;13.20;8.70;;;;;;;;;;751760;186;918539;-73
2023/07/17 09:33:37;;;;;;;25.73;8.17;;;;;;;;;;755972;185;918597;-73
2023/07/17 09:36:04;;;;;;;22.10;9.17;;;;;;;;;;759519;186;924591;-74
2023/07/17 09:38:30;;;;;;;44.33;9.80;;;;;;;;;;756130;186;920199;-75
2023/07/17 09:40:56;;;;;;;15.80;6.57;;;;;;;;;;758033;183;916414;-71
2023/07/17 09:43:30;;;;;;;21.00;4.90;;;;;;;;;;778010;180;917098;-69
2023/07/17 09:45:56;;;;;;;16.90;4.47;;;;;;;;;;777399;179;919016;-75
2023/07/17 09:48:22;;;;;;;14.33;6.43;;;;;;;;;;773802;180;914827;-72
2023/07/17 09:50:48;;;;;;;15.95;7.43;;;;;;;;;;774343;180;820562;-73
2023/07/17 09:53:16;;;;;;;16.23;8.10;;;;;;;;;;778063;180;918473;-70
2023/07/17 09:55:42;;;;;;;18.77;9.97;;;;;;;;;;772499;180;921255;-69
2023/07/17 09:58:08;;;;;;;17.20;9.77;;;;;;;;;;771313;179;918359;-75
2023/07/17 10:00:33;;;;;;;15.13;10.93;;;;;;;;;;774808;179;918134;-72
2023/07/17 10:03:01;;;;;;;13.80;10.03;;;;;;;;;;770684;180;919175;-68
2023/07/17 10:05:27;;;;;;;20.13;12.53;;;;;;;;;;767541;180;915640;-70
2023/07/17 10:07:53;;;;;;;14.73;11.40;;;;;;;;;;769754;180;941977;-68
2023/07/17 10:10:19;;;;;;;16.50;10.17;;;;;;;;;;775258;179;815195;-68
2023/07/17 10:12:44;;;;;;;10.93;9.30;;;;;;;;;;773463;179;917541;-71
2023/07/17 10:15:10;;;;;;;13.07;9.37;;;;;;;;;;771825;180;919671;-68
2023/07/17 10:17:36;;;;;;;12.73;10.07;;;;;;;;;;776625;180;911928;-72
2023/07/17 10:20:03;;;;;;;13.43;10.00;;;;;;;;;;775670;180;922466;-69
2023/07/17 10:22:29;;;;;;;11.07;8.77;;;;;;;;;;771418;179;919414;-69
2023/07/17 10:24:55;;;;;;;12.40;8.73;;;;;;;;;;772718;179;915688;-67
2023/07/17 10:27:27;;;;;;;14.30;9.10;;;;;;;;;;778595;179;918078;-67
2023/07/17 10:29:53;;;;;;;12.70;8.33;;;;;;;;;;775014;180;851825;-66
2023/07/17 10:32:19;;;;;;;11.07;7.33;;;;;;;;;;774082;180;911914;-66
2023/07/17 10:34:46;;;;;;;12.53;8.13;;;;;;;;;;772661;180;919982;-66
2023/07/17 10:37:17;;;;;;;9.93;6.20;;;;;;;;;;768994;180;936696;-67
2023/07/17 10:39:43;;;;;;;9.27;7.33;;;;;;;;;;769151;179;919134;-66
2023/07/17 10:42:09;;;;;;;13.43;7.43;;;;;;;;;;770443;179;918289;-66
2023/07/17 10:44:35;;;;;;;8.03;6.60;;;;;;;;;;779944;179;921260;-68
2023/07/17 10:47:00;;;;;;;14.00;7.17;;;;;;;;;;775827;180;920246;-66
2023/07/17 10:49:26;;;;;;;8.70;6.00;;;;;;;;;;777248;180;825417;-68
2023/07/17 10:51:52;;;;;;;9.03;6.10;;;;;;;;;;779393;180;924399;-68
2023/07/17 10:54:18;;;;;;;7.87;6.03;;;;;;;;;;772769;180;922851;-68
2023/07/17 10:56:45;;;;;;;10.50;6.00;;;;;;;;;;773128;180;919282;-68
2023/07/17 10:59:10;;;;;;;7.60;6.10;;;;;;;;;;772757;179;919552;-67
2023/07/17 11:01:36;;;;;;;14.33;5.70;;;;;;;;;;769944;181;918767;-69
2023/07/17 11:04:01;;;;;;;9.40;7.43;;;;;;;;;;770084;180;917533;-69
2023/07/17 11:06:27;;;;;;;9.40;5.50;;;;;;;;;;767252;180;918360;-68
2023/07/17 11:08:54;;;;;;;10.07;5.73;;;;;;;;;;775668;178;908033;-68
2023/07/17 11:11:20;;;;;;;13.07;6.70;;;;;;;;;;777116;179;921029;-68
2023/07/17 11:13:46;;;;;;;8.57;5.23;;;;;;;;;;775783;179;856055;-65
2023/07/17 11:16:12;;;;;;;11.43;6.43;;;;;;;;;;774331;179;918330;-67
2023/07/17 11:18:44;;;;;;;8.03;5.17;;;;;;;;;;775864;179;821898;-65
2023/07/17 11:21:09;;;;;;;11.23;6.60;;;;;;;;;;775078;180;824212;-64
2023/07/17 11:23:35;;;;;;;7.50;5.57;;;;;;;;;;772677;179;926781;-66
2023/07/17 11:26:01;;;;;;;9.40;5.37;;;;;;;;;;778602;180;816119;-65
2023/07/17 11:28:27;;;;;;;10.20;5.40;;;;;;;;;;774097;180;887807;-68
2023/07/17 11:30:53;;;;;;;10.10;6.80;;;;;;;;;;769171;180;918782;-68
2023/07/17 11:33:19;;;;;;;7.33;5.80;;;;;;;;;;778648;179;930129;-67
2023/07/17 11:35:46;;;;;;;10.20;7.53;;;;;;;;;;770361;180;925725;-68
2023/07/17 11:38:14;;;;;;;9.77;7.13;;;;;;;;;;772662;179;913129;-68
2023/07/17 11:40:46;;;;;;;8.80;7.10;;;;;;;;;;777332;179;754485;-68
2023/07/17 11:43:12;;;;;;;11.47;6.73;;;;;;;;;;779319;180;926389;-65
2023/07/17 11:45:37;;;;;;;9.83;7.43;;;;;;;;;;776489;179;800905;-69
2023/07/17 11:48:03;;;;;;;11.20;8.10;;;;;;;;;;770791;180;920259;-69
2023/07/17 11:50:29;;;;;;;8.00;7.10;;;;;;;;;;779796;180;633614;-67
2023/07/17 11:53:01;;;;;;;12.43;6.90;;;;;;;;;;775357;179;918458;-64
2023/07/17 11:55:27;;;;;;;9.47;6.17;;;;;;;;;;768238;179;919172;-70
2023/07/17 11:57:53;;;;;;;10.77;7.90;;;;;;;;;;776736;179;632612;-68
2023/07/17 12:00:19;;;;;;;11.23;7.03;;;;;;;;;;783570;179;630651;-64
2023/07/17 12:02:44;;;;;;;8.03;6.60;;;;;;;;;;776937;179;914947;-68
2023/07/17 12:05:10;;;;;;;8.40;7.13;;;;;;;;;;775845;179;916291;-66
2023/07/17 12:07:36;;;;;;;9.77;7.30;;;;;;;;;;782748;179;668372;-67
2023/07/17 12:10:02;;;;;;;8.80;6.80;;;;;;;;;;770264;179;920197;-64
2023/07/17 12:12:28;;;;;;;11.67;6.70;;;;;;;;;;773332;180;913585;-63
2023/07/17 12:14:54;;;;;;;12.23;7.73;;;;;;;;;;769153;180;930605;-62
2023/07/17 12:17:20;;;;;;;8.17;6.70;;;;;;;;;;770236;181;917214;-66
2023/07/17 12:19:45;;;;;;;9.53;7.63;;;;;;;;;;774760;180;918215;-63
2023/07/17 12:22:11;;;;;;;9.77;8.23;;;;;;;;;;775179;178;921181;-65
2023/07/17 12:24:37;;;;;;;9.80;7.40;;;;;;;;;;781713;179;915766;-63
2023/07/17 12:27:03;;;;;;;10.07;8.27;;;;;;;;;;774225;178;921256;-66
2023/07/17 12:29:29;;;;;;;13.67;7.77;;;;;;;;;;766136;181;918586;-64
2023/07/17 12:31:55;;;;;;;9.43;7.97;;;;;;;;;;779098;180;716255;-63
2023/07/17 12:34:21;;;;;;;8.77;7.90;;;;;;;;;;772049;180;921078;-65
2023/07/17 12:36:47;;;;;;;10.68;9.55;;;;;;;;;;774588;180;918897;-64
2023/07/17 12:39:13;;;;;;;9.60;8.57;;;;;;;;;;775083;180;915511;-61
2023/07/17 12:41:39;;;;;;;8.10;7.30;;;;;;;;;;774395;180;917829;-66
2023/07/17 12:44:05;;;;;;;8.87;7.97;;;;;;;;;;773374;180;817146;-66
2023/07/17 12:46:30;;;;;;;9.13;8.23;;;;;;;;;;770342;179;928754;-66
2023/07/17 12:48:56;;;;;;;10.90;8.53;;;;;;;;;;777788;179;920479;-62
2023/07/17 12:51:22;;;;;;;12.93;8.73;;;;;;;;;;777746;179;915188;-63
2023/07/17 12:53:48;;;;;;;10.13;9.00;;;;;;;;;;775028;179;916329;-66
2023/07/17 12:56:14;;;;;;;10.57;7.53;;;;;;;;;;777370;180;879538;-65
2023/07/17 12:58:40;;;;;;;10.73;7.87;;;;;;;;;;771708;181;852037;-65
2023/07/17 13:01:05;;;;;;;10.73;7.60;;;;;;;;;;769589;179;920579;-68
2023/07/17 13:03:31;;;;;;;8.40;6.97;;;;;;;;;;781431;179;816229;-69
2023/07/17 13:05:57;;;;;;;9.50;8.03;;;;;;;;;;773091;180;919190;-65
2023/07/17 13:08:23;;;;;;;9.80;7.27;;;;;;;;;;773999;179;918641;-69
2023/07/17 13:10:49;;;;;;;7.77;7.03;;;;;;;;;;771581;180;1022275;-67
2023/07/17 13:13:15;;;;;;;7.97;7.13;;;;;;;;;;781083;181;919208;-68
2023/07/17 13:15:41;;;;;;;8.17;7.40;;;;;;;;;;769594;180;941300;-68
2023/07/17 13:18:06;;;;;;;7.60;6.83;;;;;;;;;;769537;180;842344;-68
2023/07/17 13:20:32;;;;;;;9.57;7.20;;;;;;;;;;778449;180;807124;-68
2023/07/17 13:22:58;;;;;;;7.83;6.80;;;;;;;;;;772196;179;916065;-63
2023/07/17 13:25:24;;;;;;;11.77;7.43;;;;;;;;;;775791;180;810904;-63
2023/07/17 13:27:50;;;;;;;11.40;6.77;;;;;;;;;;779908;180;839917;-68
2023/07/17 13:30:16;;;;;;;7.33;5.97;;;;;;;;;;771012;181;918832;-64
2023/07/17 13:32:42;;;;;;;7.63;6.83;;;;;;;;;;773070;179;919024;-64
2023/07/17 13:35:08;;;;;;;7.40;6.70;;;;;;;;;;776613;179;912569;-64
2023/07/17 13:37:34;;;;;;;7.90;6.60;;;;;;;;;;778019;179;916258;-67
2023/07/17 13:40:00;;;;;;;6.60;5.13;;;;;;;;;;778922;179;870215;-66
2023/07/17 13:42:25;;;;;;;8.03;5.87;;;;;;;;;;771347;179;919248;-70
2023/07/17 13:44:51;;;;;;;6.93;6.23;;;;;;;;;;778810;179;917105;-69
2023/07/17 13:47:17;;;;;;;6.83;6.00;;;;;;;;;;778141;179;746320;-63
2023/07/17 13:49:43;;;;;;;7.13;5.30;;;;;;;;;;772662;179;916325;-68
2023/07/17 13:52:09;;;;;;;6.10;5.33;;;;;;;;;;778704;180;921828;-65
2023/07/17 13:54:35;;;;;;;6.53;5.80;;;;;;;;;;775125;179;819501;-64
2023/07/17 13:57:00;;;;;;;9.00;6.17;;;;;;;;;;774475;180;819642;-64
2023/07/17 13:59:26;;;;;;;7.10;5.77;;;;;;;;;;774011;180;920208;-67
2023/07/17 14:01:52;;;;;;;6.07;5.47;;;;;;;;;;774054;180;916026;-64
2023/07/17 14:04:19;;;;;;;6.80;5.60;;;;;;;;;;771604;180;918429;-63
2023/07/17 14:06:45;;;;;;;10.10;5.33;;;;;;;;;;772862;179;921154;-64
2023/07/17 14:09:11;;;;;;;11.83;5.73;;;;;;;;;;780926;179;918219;-69